Time;durP1;ratioP1;P1;durP2;ratioP2;P2;SDS_P1;SDS_P2;PMS_P1;PMS_P2;Temp;Humidity;BMP_temperature;BMP_pressure;BME280_temperature;BME280_humidity;BME280_pressure;Samples;Min_cycle;Max_cycle;Signal;HPM_P1;HPM_P2
2021/12/11 00:00:06;;;;;;;2.20;2.10;;;1.90;99.90;;;;;;494017;241;27459;-74
2021/12/11 00:02:09;;;;;;;2.33;2.22;;;1.90;99.90;;;;;;493991;241;27536;-74
2021/12/11 00:04:09;;;;;;;1.85;1.77;;;1.90;99.90;;;;;;493920;241;27482;-74
2021/12/11 00:06:10;;;;;;;1.83;1.73;;;1.90;99.90;;;;;;494011;241;27565;-74
2021/12/11 00:08:11;;;;;;;2.17;2.08;;;1.90;99.90;;;;;;494015;241;27501;-74
2021/12/11 00:10:13;;;;;;;2.20;2.10;;;1.90;99.90;;;;;;493991;241;27494;-74
2021/12/11 00:12:15;;;;;;;2.45;2.25;;;1.80;99.90;;;;;;494024;241;27521;-74
2021/12/11 00:14:15;;;;;;;1.90;1.80;;;1.90;99.90;;;;;;493912;241;27464;-74
2021/12/11 00:16:17;;;;;;;2.17;2.08;;;1.90;99.90;;;;;;494034;241;27466;-74
2021/12/11 00:18:18;;;;;;;2.20;2.10;;;1.90;99.90;;;;;;494022;241;27485;-74
2021/12/11 00:20:19;;;;;;;2.00;1.90;;;1.90;99.90;;;;;;494017;241;27940;-74
2021/12/11 00:22:20;;;;;;;1.90;1.80;;;1.90;99.90;;;;;;493979;241;27961;-74
2021/12/11 00:24:26;;;;;;;2.42;2.33;;;1.90;99.90;;;;;;493978;241;28736;-74
2021/12/11 00:26:23;;;;;;;2.30;2.20;;;1.90;99.90;;;;;;493703;241;27920;-73
2021/12/11 00:28:24;;;;;;;2.20;2.10;;;1.90;99.90;;;;;;494050;241;28040;-75
2021/12/11 00:30:25;;;;;;;1.75;1.75;;;1.90;99.90;;;;;;494028;241;27561;-75
2021/12/11 00:32:26;;;;;;;2.08;1.98;;;1.90;99.90;;;;;;493972;241;27576;-74
2021/12/11 00:34:28;;;;;;;2.53;2.33;;;1.90;99.90;;;;;;494009;241;27462;-74
2021/12/11 00:36:32;;;;;;;2.17;2.08;;;1.90;99.90;;;;;;494038;241;27553;-74
2021/12/11 00:38:34;;;;;;;2.40;2.30;;;1.80;99.90;;;;;;493810;241;27496;-74
2021/12/11 00:40:31;;;;;;;2.40;2.30;;;1.90;99.90;;;;;;493732;241;27486;-74
2021/12/11 00:42:34;;;;;;;1.90;1.80;;;1.90;99.90;;;;;;494012;241;27592;-74
2021/12/11 00:44:34;;;;;;;2.20;2.00;;;1.90;99.90;;;;;;493875;241;27876;-74
2021/12/11 00:46:35;;;;;;;2.30;2.20;;;1.90;99.90;;;;;;494023;241;27490;-74
2021/12/11 00:48:37;;;;;;;2.50;2.40;;;1.90;99.90;;;;;;494006;241;27516;-75
2021/12/11 00:50:38;;;;;;;2.15;2.05;;;1.90;99.90;;;;;;493949;241;28060;-74
2021/12/11 00:52:39;;;;;;;2.30;2.20;;;1.90;99.90;;;;;;494001;241;27984;-75
2021/12/11 00:54:40;;;;;;;2.25;2.15;;;1.90;99.90;;;;;;493960;241;27934;-74
2021/12/11 00:56:41;;;;;;;2.35;2.25;;;1.80;99.90;;;;;;493988;241;27485;-74
2021/12/11 00:58:43;;;;;;;2.20;2.10;;;1.90;99.90;;;;;;494032;241;27529;-74
2021/12/11 01:00:44;;;;;;;2.10;2.00;;;1.90;99.90;;;;;;494024;241;27912;-74
2021/12/11 01:02:45;;;;;;;2.47;2.30;;;1.80;99.90;;;;;;493990;241;27505;-75
2021/12/11 01:04:47;;;;;;;3.12;2.92;;;1.80;99.90;;;;;;493981;241;27471;-74
2021/12/11 01:06:49;;;;;;;2.10;2.00;;;1.90;99.90;;;;;;493982;241;27493;-74
2021/12/11 01:08:52;;;;;;;2.83;2.62;;;1.90;99.90;;;;;;493913;241;27705;-74
2021/12/11 01:10:50;;;;;;;2.15;2.05;;;1.90;99.90;;;;;;493783;241;27577;-75
2021/12/11 01:12:56;;;;;;;2.30;2.20;;;1.90;99.90;;;;;;493978;241;27515;-74
2021/12/11 01:14:54;;;;;;;2.40;2.30;;;1.80;99.90;;;;;;493609;241;27451;-74
2021/12/11 01:16:56;;;;;;;2.60;2.40;;;1.80;99.90;;;;;;493922;241;27864;-74
2021/12/11 01:18:55;;;;;;;2.60;2.40;;;1.90;99.90;;;;;;493889;241;28031;-75
2021/12/11 01:21:03;;;;;;;2.67;2.58;;;1.90;99.90;;;;;;493998;241;27986;-74
2021/12/11 01:23:01;;;;;;;2.53;2.40;;;1.90;99.90;;;;;;493640;241;27466;-74
2021/12/11 01:25:02;;;;;;;2.70;2.50;;;1.90;99.90;;;;;;493961;241;27522;-74
2021/12/11 01:27:03;;;;;;;2.67;2.50;;;1.80;99.90;;;;;;493993;241;27468;-74
2021/12/11 01:29:04;;;;;;;2.70;2.50;;;1.80;99.90;;;;;;494004;241;27584;-74
2021/12/11 01:31:06;;;;;;;2.70;2.50;;;1.90;99.90;;;;;;494007;241;27509;-74
2021/12/11 01:33:07;;;;;;;2.60;2.50;;;1.80;99.90;;;;;;493987;241;28071;-74
2021/12/11 01:35:08;;;;;;;2.85;2.65;;;1.80;99.90;;;;;;493972;241;27989;-74
2021/12/11 01:37:09;;;;;;;2.65;2.53;;;1.90;99.90;;;;;;493991;241;28679;-74
2021/12/11 01:39:11;;;;;;;2.58;2.37;;;1.90;99.90;;;;;;494033;241;27978;-75
2021/12/11 01:41:12;;;;;;;3.00;2.80;;;1.90;99.90;;;;;;494045;241;27525;-75
2021/12/11 01:43:13;;;;;;;3.10;2.90;;;1.80;99.90;;;;;;494013;241;27567;-74
2021/12/11 01:45:14;;;;;;;3.00;2.80;;;1.80;99.90;;;;;;493972;241;27528;-74
2021/12/11 01:47:16;;;;;;;2.90;2.70;;;1.80;99.90;;;;;;494023;241;27607;-74
2021/12/11 01:49:17;;;;;;;2.87;2.70;;;1.90;99.90;;;;;;493974;241;27473;-74
2021/12/11 01:51:18;;;;;;;2.72;2.53;;;1.80;99.90;;;;;;493995;241;27518;-75
2021/12/11 01:53:19;;;;;;;2.72;2.53;;;1.80;99.90;;;;;;493989;241;27494;-74
2021/12/11 01:55:21;;;;;;;2.87;2.58;;;1.80;99.90;;;;;;494011;241;27559;-74
2021/12/11 01:57:23;;;;;;;3.00;2.80;;;1.80;99.90;;;;;;494008;241;27865;-74
2021/12/11 01:59:23;;;;;;;3.10;2.80;;;1.80;99.90;;;;;;493963;241;27583;-74
2021/12/11 02:01:24;;;;;;;2.83;2.62;;;1.90;99.90;;;;;;494008;241;27500;-75
2021/12/11 02:03:26;;;;;;;2.90;2.70;;;1.90;99.90;;;;;;494011;241;27992;-76
2021/12/11 02:05:27;;;;;;;3.10;2.90;;;1.90;99.90;;;;;;493965;241;28044;-75
2021/12/11 02:07:28;;;;;;;2.92;2.70;;;1.90;99.90;;;;;;494020;241;28182;-74
2021/12/11 02:09:29;;;;;;;3.25;2.95;;;1.90;99.90;;;;;;494045;241;27466;-74
2021/12/11 02:11:31;;;;;;;3.10;2.90;;;1.90;99.90;;;;;;494041;241;27488;-74
2021/12/11 02:13:40;;;;;;;3.08;2.87;;;1.90;99.90;;;;;;494029;237;27465;-74
2021/12/11 02:15:39;;;;;;;3.30;3.10;;;1.80;99.90;;;;;;493580;241;28029;-75
2021/12/11 02:17:38;;;;;;;3.35;3.05;;;1.80;99.90;;;;;;493788;241;27501;-74
2021/12/11 02:19:39;;;;;;;3.15;2.95;;;1.80;99.90;;;;;;493962;241;27509;-74
2021/12/11 02:21:40;;;;;;;3.35;3.05;;;1.90;99.90;;;;;;494011;241;27553;-74
2021/12/11 02:23:41;;;;;;;3.20;3.00;;;1.80;99.90;;;;;;494037;241;27493;-74
2021/12/11 02:25:43;;;;;;;2.92;2.72;;;1.90;99.90;;;;;;494012;241;27500;-74
2021/12/11 02:27:44;;;;;;;3.40;3.12;;;1.90;99.90;;;;;;494049;241;27589;-75
2021/12/11 02:29:45;;;;;;;2.83;2.62;;;1.80;99.90;;;;;;494050;241;27520;-73
2021/12/11 02:31:46;;;;;;;2.85;2.65;;;1.90;99.90;;;;;;494058;241;27481;-74
2021/12/11 02:33:47;;;;;;;3.03;2.83;;;1.90;99.90;;;;;;494017;241;27486;-74
2021/12/11 02:35:49;;;;;;;3.37;3.10;;;1.90;99.90;;;;;;494036;241;27458;-74
2021/12/11 02:37:50;;;;;;;3.20;3.00;;;1.90;99.90;;;;;;494065;241;27894;-73
2021/12/11 02:39:51;;;;;;;3.40;3.20;;;1.90;99.90;;;;;;494032;241;28058;-74
2021/12/11 02:41:52;;;;;;;3.50;3.30;;;1.90;99.90;;;;;;494002;241;27946;-74
2021/12/11 02:43:54;;;;;;;3.25;3.00;;;1.90;99.90;;;;;;494007;241;27973;-75
2021/12/11 02:45:55;;;;;;;3.60;3.30;;;1.90;99.90;;;;;;494013;241;27625;-74
2021/12/11 02:47:56;;;;;;;3.45;3.25;;;1.90;99.90;;;;;;494020;241;27556;-75
2021/12/11 02:49:57;;;;;;;4.30;2.80;;;1.80;99.90;;;;;;494017;241;27534;-74
2021/12/11 02:51:59;;;;;;;3.78;3.47;;;1.80;99.90;;;;;;494005;241;27609;-74
2021/12/11 02:54:00;;;;;;;3.15;2.95;;;1.90;99.90;;;;;;494018;241;27563;-75
2021/12/11 02:56:01;;;;;;;3.45;3.17;;;1.80;99.90;;;;;;493994;241;27574;-74
2021/12/11 02:58:02;;;;;;;5.22;3.47;;;1.90;99.90;;;;;;494056;241;27489;-74
2021/12/11 03:00:04;;;;;;;2.83;2.62;;;1.90;99.90;;;;;;494049;241;27539;-75
2021/12/11 03:02:08;;;;;;;3.22;3.03;;;1.90;99.90;;;;;;494046;241;27505;-74
2021/12/11 03:04:13;;;;;;;3.00;2.80;;;1.90;99.90;;;;;;493747;241;27516;-74
2021/12/11 03:06:16;;;;;;;3.03;2.80;;;1.90;99.90;;;;;;493476;241;28001;-74
2021/12/11 03:08:09;;;;;;;3.35;3.05;;;1.90;99.90;;;;;;493335;241;27922;-74
2021/12/11 03:10:10;;;;;;;3.20;3.00;;;1.90;99.90;;;;;;494038;241;28078;-76
2021/12/11 03:12:11;;;;;;;2.67;2.50;;;1.90;99.90;;;;;;493999;241;27921;-74
2021/12/11 03:14:14;;;;;;;3.22;3.03;;;1.90;99.90;;;;;;493996;241;27510;-75
2021/12/11 03:16:14;;;;;;;3.37;3.08;;;1.90;99.90;;;;;;493846;241;27576;-74
2021/12/11 03:18:15;;;;;;;3.00;2.80;;;1.90;99.90;;;;;;494008;241;27536;-75
2021/12/11 03:20:16;;;;;;;3.45;3.15;;;1.90;99.90;;;;;;494029;241;27596;-74
2021/12/11 03:22:17;;;;;;;3.37;3.10;;;1.90;99.90;;;;;;494034;241;27528;-74
2021/12/11 03:24:19;;;;;;;2.67;2.53;;;1.90;99.90;;;;;;494018;241;27501;-74
2021/12/11 03:26:20;;;;;;;2.95;2.75;;;2.00;99.90;;;;;;493978;241;27565;-74
2021/12/11 03:28:21;;;;;;;2.92;2.72;;;1.90;99.90;;;;;;494023;241;27476;-74
2021/12/11 03:30:22;;;;;;;3.12;2.92;;;1.90;99.90;;;;;;494042;241;27541;-75
2021/12/11 03:32:24;;;;;;;3.30;3.00;;;1.90;99.90;;;;;;493993;241;27469;-74
2021/12/11 03:34:25;;;;;;;3.37;3.17;;;1.90;99.90;;;;;;494026;241;27984;-74
2021/12/11 03:36:26;;;;;;;3.00;2.80;;;2.00;99.90;;;;;;494002;241;27912;-74
2021/12/11 03:38:27;;;;;;;3.40;3.10;;;2.00;99.90;;;;;;494051;241;28039;-74
2021/12/11 03:40:29;;;;;;;2.97;2.78;;;1.90;99.90;;;;;;494052;241;28152;-74
2021/12/11 03:42:30;;;;;;;2.83;2.62;;;1.90;99.90;;;;;;494006;241;27471;-74
2021/12/11 03:44:33;;;;;;;3.20;3.00;;;2.00;99.90;;;;;;494031;241;27504;-74
2021/12/11 03:46:32;;;;;;;2.90;2.70;;;2.00;99.90;;;;;;493890;241;27570;-75
2021/12/11 03:48:34;;;;;;;2.87;2.67;;;2.00;99.90;;;;;;494009;237;27489;-74
2021/12/11 03:50:35;;;;;;;3.30;3.00;;;1.90;99.90;;;;;;494098;241;27537;-74
2021/12/11 03:52:36;;;;;;;3.42;3.12;;;1.90;99.90;;;;;;494036;241;27546;-74
2021/12/11 03:54:37;;;;;;;3.47;3.17;;;1.90;99.90;;;;;;494016;241;27637;-74
2021/12/11 03:56:39;;;;;;;2.90;2.70;;;2.00;99.90;;;;;;493995;241;27462;-74
2021/12/11 03:58:40;;;;;;;3.15;2.95;;;2.00;99.90;;;;;;493986;238;27591;-74
2021/12/11 04:00:41;;;;;;;3.47;3.17;;;2.00;99.90;;;;;;493987;241;27545;-74
2021/12/11 04:02:44;;;;;;;3.10;2.90;;;2.00;99.90;;;;;;493982;241;28524;-74
2021/12/11 04:04:44;;;;;;;3.65;3.35;;;2.00;99.90;;;;;;493866;241;28000;-74
2021/12/11 04:06:45;;;;;;;3.30;3.10;;;1.90;99.90;;;;;;493998;241;28121;-74
2021/12/11 04:08:46;;;;;;;3.55;3.25;;;2.00;99.90;;;;;;493990;241;28036;-74
2021/12/11 04:10:47;;;;;;;3.50;3.20;;;2.00;99.90;;;;;;494021;241;27615;-74
2021/12/11 04:12:49;;;;;;;3.80;3.50;;;1.90;99.90;;;;;;493995;241;27470;-74
2021/12/11 04:14:50;;;;;;;3.47;3.17;;;1.90;99.90;;;;;;494017;241;27509;-74
2021/12/11 04:16:51;;;;;;;4.00;3.70;;;1.90;99.90;;;;;;494019;241;27548;-74
2021/12/11 04:18:52;;;;;;;3.55;3.22;;;1.90;99.90;;;;;;494003;241;27496;-74
2021/12/11 04:20:54;;;;;;;3.85;3.55;;;2.00;99.90;;;;;;494014;241;27665;-74
2021/12/11 04:22:55;;;;;;;3.70;3.40;;;2.00;99.90;;;;;;494024;241;27525;-75
2021/12/11 04:24:56;;;;;;;3.70;3.40;;;1.90;99.90;;;;;;494015;241;27509;-74
2021/12/11 04:26:57;;;;;;;4.22;3.83;;;2.00;99.90;;;;;;493986;241;27497;-75
2021/12/11 04:28:59;;;;;;;5.95;3.92;;;2.00;99.90;;;;;;493974;241;27973;-75
2021/12/11 04:31:04;;;;;;;5.10;4.43;;;1.90;99.90;;;;;;494028;241;27976;-76
2021/12/11 04:33:01;;;;;;;4.53;4.12;;;1.90;99.90;;;;;;493697;241;28011;-74
2021/12/11 04:35:02;;;;;;;4.57;3.90;;;1.90;99.90;;;;;;493998;241;29061;-74
2021/12/11 04:37:10;;;;;;;3.92;3.62;;;1.90;99.90;;;;;;494007;241;28006;-75
2021/12/11 04:39:05;;;;;;;4.35;4.00;;;2.00;99.90;;;;;;493438;241;27604;-74
2021/12/11 04:41:07;;;;;;;4.53;4.12;;;1.90;99.90;;;;;;494030;241;27532;-74
2021/12/11 04:43:12;;;;;;;5.68;4.12;;;1.90;99.90;;;;;;493992;241;27477;-74
2021/12/11 04:45:09;;;;;;;4.87;4.35;;;2.00;99.90;;;;;;493639;241;27505;-74
2021/12/11 04:47:13;;;;;;;5.25;4.80;;;1.90;99.90;;;;;;493994;241;27468;-75
2021/12/11 04:49:28;;;;;;;4.87;4.45;;;1.90;99.90;;;;;;493747;241;27594;-74
2021/12/11 04:51:29;;;;;;;5.12;4.62;;;1.90;99.90;;;;;;493061;241;27567;-74
2021/12/11 04:55:49;;;;;;;5.15;4.22;;;1.90;99.90;;;;;;493990;241;27477;-75
2021/12/11 04:57:58;;;;;;;5.25;4.75;;;1.90;99.90;;;;;;492542;241;27480;-74
2021/12/11 05:04:32;;;;;;;4.82;4.32;;;2.00;99.90;;;;;;493983;241;27477;-74
2021/12/11 05:06:30;;;;;;;5.10;4.60;;;2.00;99.90;;;;;;492225;241;27532;-74
2021/12/11 05:10:26;;;;;;;4.93;4.53;;;2.00;99.90;;;;;;493996;241;27948;-75
2021/12/11 05:14:26;;;;;;;6.50;5.12;;;2.00;99.90;;;;;;493988;241;27506;-74
2021/12/11 05:16:27;;;;;;;5.30;4.53;;;1.90;99.90;;;;;;493996;241;27619;-74
2021/12/11 05:18:29;;;;;;;5.15;4.68;;;2.00;99.90;;;;;;494009;241;27519;-74
2021/12/11 05:20:30;;;;;;;6.53;5.15;;;2.00;99.90;;;;;;493959;241;27506;-74
2021/12/11 05:22:31;;;;;;;5.50;4.85;;;2.00;99.90;;;;;;493969;241;27461;-74
2021/12/11 05:24:32;;;;;;;5.30;4.80;;;2.00;99.90;;;;;;494038;241;27904;-75
2021/12/11 05:26:35;;;;;;;5.30;4.60;;;2.00;99.90;;;;;;494032;241;27980;-74
2021/12/11 05:28:35;;;;;;;4.90;4.50;;;2.10;99.90;;;;;;493909;241;27955;-74
2021/12/11 05:30:36;;;;;;;4.00;3.65;;;2.10;99.90;;;;;;493997;241;27997;-74
2021/12/11 05:32:38;;;;;;;4.82;4.43;;;2.10;99.90;;;;;;493884;241;27565;-75
2021/12/11 05:34:39;;;;;;;4.68;4.05;;;2.00;99.90;;;;;;493932;241;27623;-74
2021/12/11 05:36:40;;;;;;;5.62;4.22;;;2.10;99.90;;;;;;493956;241;27549;-74
2021/12/11 05:38:41;;;;;;;4.70;4.20;;;2.10;99.90;;;;;;493933;241;27561;-74
2021/12/11 05:40:42;;;;;;;5.15;4.65;;;2.10;99.90;;;;;;493910;241;27525;-74
2021/12/11 05:42:44;;;;;;;4.90;4.50;;;2.00;99.90;;;;;;493910;241;27595;-74
2021/12/11 05:44:45;;;;;;;5.28;4.78;;;2.00;99.90;;;;;;493878;241;27558;-74
2021/12/11 05:46:46;;;;;;;5.57;5.07;;;2.00;99.90;;;;;;493983;241;27615;-74
2021/12/11 05:48:47;;;;;;;4.45;4.05;;;2.00;99.90;;;;;;493952;241;27498;-74
2021/12/11 05:50:49;;;;;;;5.12;4.62;;;2.00;99.90;;;;;;493958;241;27512;-74
2021/12/11 05:52:50;;;;;;;5.75;5.15;;;2.00;99.90;;;;;;493989;241;27900;-75
2021/12/11 05:54:52;;;;;;;6.15;4.50;;;2.00;99.90;;;;;;494005;241;27950;-75
2021/12/11 05:56:54;;;;;;;5.20;4.70;;;2.00;99.90;;;;;;494038;241;28106;-74
2021/12/11 06:00:55;;;;;;;4.85;4.28;;;2.00;99.90;;;;;;494029;241;27497;-74
2021/12/11 06:02:56;;;;;;;5.30;4.60;;;2.00;99.90;;;;;;493997;241;27510;-74
2021/12/11 06:04:58;;;;;;;5.00;4.50;;;2.00;99.90;;;;;;494012;241;27512;-74
2021/12/11 06:06:59;;;;;;;4.47;4.07;;;1.90;99.90;;;;;;493975;241;27476;-74
2021/12/11 06:09:00;;;;;;;4.80;4.40;;;2.00;99.90;;;;;;494037;241;27487;-74
2021/12/11 06:11:01;;;;;;;5.50;4.90;;;2.00;99.90;;;;;;494003;241;27619;-74
2021/12/11 06:13:02;;;;;;;4.82;4.40;;;2.00;99.90;;;;;;493994;241;27474;-74
2021/12/11 06:15:04;;;;;;;5.07;4.57;;;1.90;99.90;;;;;;494000;241;27484;-74
2021/12/11 06:17:05;;;;;;;4.85;4.45;;;1.90;99.90;;;;;;493994;241;27952;-74
2021/12/11 06:19:06;;;;;;;5.03;4.53;;;1.90;99.90;;;;;;494012;241;27512;-75
2021/12/11 06:21:07;;;;;;;4.65;4.25;;;1.90;99.90;;;;;;494017;241;28062;-73
2021/12/11 06:23:09;;;;;;;5.07;4.57;;;1.90;99.90;;;;;;494007;241;28058;-74
2021/12/11 06:25:10;;;;;;;4.70;4.30;;;1.90;99.90;;;;;;494037;241;27985;-74
2021/12/11 06:27:11;;;;;;;4.45;4.05;;;1.80;99.90;;;;;;493993;241;28183;-75
2021/12/11 06:29:12;;;;;;;4.72;4.03;;;1.80;99.90;;;;;;494026;241;27575;-74
2021/12/11 06:31:18;;;;;;;5.18;4.68;;;1.90;99.90;;;;;;494037;241;27505;-74
2021/12/11 06:33:15;;;;;;;4.22;3.85;;;1.90;99.90;;;;;;493646;241;27559;-74
2021/12/11 06:35:16;;;;;;;5.35;4.60;;;1.80;99.90;;;;;;494023;241;27494;-74
2021/12/11 06:37:20;;;;;;;4.78;4.28;;;1.80;99.90;;;;;;494046;241;27525;-75
2021/12/11 06:39:19;;;;;;;7.50;5.20;;;1.80;99.90;;;;;;493929;241;27550;-74
2021/12/11 06:41:20;;;;;;;5.35;4.80;;;1.80;99.90;;;;;;494052;241;27518;-74
2021/12/11 06:43:21;;;;;;;5.45;4.95;;;1.80;99.90;;;;;;494007;241;27473;-74
2021/12/11 06:45:22;;;;;;;5.32;4.87;;;1.80;99.90;;;;;;494039;241;27540;-74
2021/12/11 06:47:24;;;;;;;5.43;4.93;;;1.80;99.90;;;;;;494007;241;27604;-74
2021/12/11 06:49:25;;;;;;;5.97;5.35;;;1.90;99.90;;;;;;494013;241;27470;-74
2021/12/11 06:51:26;;;;;;;5.37;4.82;;;1.90;99.90;;;;;;493994;241;28003;-74
2021/12/11 06:53:27;;;;;;;10.52;5.95;;;1.90;99.90;;;;;;493983;241;27999;-74
2021/12/11 06:55:29;;;;;;;5.40;4.78;;;1.90;99.90;;;;;;493985;241;28069;-74
2021/12/11 06:57:30;;;;;;;5.45;4.85;;;1.80;99.90;;;;;;494010;241;27624;-74
2021/12/11 06:59:31;;;;;;;6.53;5.15;;;1.80;99.90;;;;;;494034;241;27462;-75
2021/12/11 07:01:32;;;;;;;9.18;5.55;;;1.80;99.90;;;;;;494018;241;27505;-74
2021/12/11 07:03:34;;;;;;;6.05;5.10;;;1.80;99.90;;;;;;493982;241;27474;-74
2021/12/11 07:05:37;;;;;;;6.10;5.50;;;1.80;99.90;;;;;;494002;241;27526;-74
2021/12/11 07:07:37;;;;;;;6.65;5.20;;;1.80;99.90;;;;;;493866;241;27513;-74
2021/12/11 07:09:38;;;;;;;7.80;5.75;;;1.80;99.90;;;;;;494017;241;27597;-74
2021/12/11 07:11:43;;;;;;;8.10;5.80;;;1.80;99.90;;;;;;494007;241;27501;-74
2021/12/11 07:13:43;;;;;;;7.30;6.10;;;1.80;99.90;;;;;;493901;241;27632;-74
2021/12/11 07:15:44;;;;;;;5.80;5.30;;;1.80;99.90;;;;;;493989;241;27478;-74
2021/12/11 07:17:45;;;;;;;6.60;5.18;;;1.70;99.90;;;;;;493951;241;27552;-74
2021/12/11 07:19:46;;;;;;;6.25;5.65;;;1.80;99.90;;;;;;493823;241;27605;-74
2021/12/11 07:21:50;;;;;;;6.12;5.53;;;1.80;99.90;;;;;;493806;241;27478;-74
2021/12/11 07:23:49;;;;;;;6.10;5.50;;;1.70;99.90;;;;;;493611;241;27611;-74
2021/12/11 07:25:50;;;;;;;6.32;5.72;;;1.70;99.90;;;;;;493852;241;27943;-74
2021/12/11 07:27:51;;;;;;;6.00;5.12;;;1.80;99.90;;;;;;493969;241;28808;-74
2021/12/11 07:29:53;;;;;;;6.43;5.72;;;1.80;99.90;;;;;;493998;241;27944;-74
2021/12/11 07:31:54;;;;;;;8.60;5.78;;;1.80;99.90;;;;;;494026;241;28739;-74
2021/12/11 07:33:55;;;;;;;7.25;5.87;;;1.80;99.90;;;;;;494046;241;27517;-74
2021/12/11 07:35:56;;;;;;;6.80;5.68;;;1.80;99.90;;;;;;494021;241;27502;-75
2021/12/11 07:37:58;;;;;;;6.78;5.55;;;1.80;99.90;;;;;;494020;241;27532;-74
2021/12/11 07:39:59;;;;;;;7.50;5.50;;;1.80;99.90;;;;;;493999;241;27472;-74
2021/12/11 07:42:00;;;;;;;5.85;5.22;;;1.80;99.90;;;;;;494025;241;27505;-74
2021/12/11 07:44:02;;;;;;;6.95;5.50;;;1.90;99.90;;;;;;494010;241;27529;-75
2021/12/11 07:46:03;;;;;;;6.47;5.45;;;1.80;99.90;;;;;;494038;241;27485;-74
2021/12/11 07:48:04;;;;;;;7.10;5.87;;;1.90;99.90;;;;;;494027;241;27469;-74
2021/12/11 07:50:05;;;;;;;7.07;5.82;;;1.90;99.90;;;;;;493999;241;27541;-74
2021/12/11 07:52:06;;;;;;;8.00;6.22;;;1.80;99.90;;;;;;494009;241;27495;-74
2021/12/11 07:54:08;;;;;;;6.87;5.55;;;1.80;99.90;;;;;;494015;241;27529;-75
2021/12/11 07:56:09;;;;;;;6.68;5.85;;;1.90;99.90;;;;;;494025;241;27544;-74
2021/12/11 07:58:10;;;;;;;9.10;6.22;;;1.90;99.90;;;;;;494005;241;27514;-74
2021/12/11 08:00:11;;;;;;;8.05;5.70;;;1.90;99.90;;;;;;494011;241;27466;-74
2021/12/11 08:02:13;;;;;;;8.55;5.55;;;1.90;99.90;;;;;;494017;241;27905;-74
2021/12/11 08:04:14;;;;;;;7.70;6.03;;;2.00;99.90;;;;;;494041;237;27985;-74
2021/12/11 08:06:15;;;;;;;6.68;5.30;;;2.00;99.90;;;;;;494015;241;27928;-74
2021/12/11 08:08:16;;;;;;;7.05;6.03;;;2.00;99.90;;;;;;493983;241;27977;-74
2021/12/11 08:10:18;;;;;;;7.68;6.10;;;2.00;99.90;;;;;;493967;241;27443;-75
2021/12/11 08:12:19;;;;;;;10.70;6.40;;;2.00;99.90;;;;;;493952;241;27490;-74
2021/12/11 08:14:20;;;;;;;7.75;6.20;;;2.00;99.90;;;;;;494003;241;27502;-74
2021/12/11 08:16:24;;;;;;;7.60;6.20;;;2.00;99.90;;;;;;494003;241;27463;-75
2021/12/11 08:18:24;;;;;;;7.35;6.50;;;2.10;99.90;;;;;;493847;241;27489;-74
2021/12/11 08:20:24;;;;;;;6.87;6.18;;;2.10;99.90;;;;;;493890;241;27493;-75
2021/12/11 08:22:25;;;;;;;9.10;6.65;;;2.10;99.90;;;;;;493988;241;27624;-75
2021/12/11 08:24:29;;;;;;;8.60;6.78;;;2.10;99.90;;;;;;494038;241;27512;-74
2021/12/11 08:26:29;;;;;;;7.72;6.45;;;2.20;99.90;;;;;;493925;241;27505;-74
2021/12/11 08:28:31;;;;;;;6.97;5.68;;;2.20;99.90;;;;;;493974;241;27486;-74
2021/12/11 08:30:31;;;;;;;8.85;6.45;;;2.20;99.90;;;;;;493950;241;27909;-74
2021/12/11 08:32:33;;;;;;;9.02;6.85;;;2.20;99.90;;;;;;494005;241;28093;-74
2021/12/11 08:34:34;;;;;;;7.37;6.50;;;2.30;99.90;;;;;;494011;241;28012;-74
2021/12/11 08:36:35;;;;;;;8.93;7.22;;;2.30;99.90;;;;;;493988;241;28069;-74
2021/12/11 08:38:36;;;;;;;9.13;7.00;;;2.30;99.90;;;;;;493969;241;27509;-74
2021/12/11 08:40:38;;;;;;;8.63;7.05;;;2.30;99.90;;;;;;493977;241;27481;-74
2021/12/11 08:42:39;;;;;;;7.70;6.20;;;2.30;99.90;;;;;;493998;241;27503;-74
2021/12/11 08:44:48;;;;;;;9.73;6.93;;;2.30;99.90;;;;;;493989;241;27506;-74
2021/12/11 08:46:41;;;;;;;9.18;7.55;;;2.30;99.90;;;;;;493342;241;27510;-74
2021/12/11 08:48:43;;;;;;;9.50;8.05;;;2.30;99.90;;;;;;493959;241;27477;-74
2021/12/11 08:50:44;;;;;;;13.93;8.10;;;2.30;99.90;;;;;;493986;241;27501;-74
2021/12/11 08:52:49;;;;;;;11.10;8.38;;;2.30;99.90;;;;;;494036;241;27508;-74
2021/12/11 08:54:48;;;;;;;10.90;7.87;;;2.20;99.90;;;;;;493804;241;27513;-74
2021/12/11 08:56:49;;;;;;;12.30;9.30;;;2.30;99.90;;;;;;493958;241;27556;-74
2021/12/11 08:58:50;;;;;;;12.50;8.60;;;2.30;99.90;;;;;;494019;241;27990;-75
2021/12/11 09:00:51;;;;;;;11.18;7.85;;;2.30;99.90;;;;;;493993;241;27944;-74
2021/12/11 09:02:53;;;;;;;11.85;8.90;;;2.40;99.90;;;;;;494003;241;27480;-74
2021/12/11 09:04:55;;;;;;;11.25;7.97;;;2.40;99.90;;;;;;493986;241;27533;-74
2021/12/11 09:06:55;;;;;;;11.57;8.50;;;2.30;99.90;;;;;;493942;241;27473;-74
2021/12/11 09:08:57;;;;;;;13.48;9.38;;;2.30;99.90;;;;;;493991;241;27517;-75
2021/12/11 09:10:58;;;;;;;11.12;8.60;;;2.20;99.90;;;;;;493775;241;27509;-75
2021/12/11 09:12:59;;;;;;;12.30;8.82;;;2.20;99.90;;;;;;494001;241;27478;-74
2021/12/11 09:15:00;;;;;;;13.15;9.25;;;2.20;99.90;;;;;;493980;241;27501;-75
2021/12/11 09:17:01;;;;;;;10.35;8.48;;;2.10;99.90;;;;;;493974;241;27867;-75
2021/12/11 09:19:05;;;;;;;13.07;9.30;;;2.20;99.90;;;;;;494012;241;27896;-74
2021/12/11 09:21:04;;;;;;;12.02;8.90;;;2.20;99.90;;;;;;493882;241;27967;-75
2021/12/11 09:23:06;;;;;;;13.00;9.27;;;2.20;99.90;;;;;;494004;241;27496;-74
2021/12/11 09:25:06;;;;;;;11.63;8.50;;;2.20;99.90;;;;;;494002;241;27514;-74
2021/12/11 09:27:11;;;;;;;11.12;8.55;;;2.20;99.90;;;;;;493987;241;27505;-75
2021/12/11 09:29:09;;;;;;;12.00;8.75;;;2.20;99.90;;;;;;493754;241;27580;-75
2021/12/11 09:31:10;;;;;;;13.45;9.20;;;2.30;99.90;;;;;;494021;241;27626;-74
2021/12/11 09:33:12;;;;;;;12.18;9.10;;;2.30;99.90;;;;;;494002;241;27477;-75
2021/12/11 09:35:13;;;;;;;12.75;9.23;;;2.40;99.90;;;;;;493975;241;27512;-74
2021/12/11 09:37:14;;;;;;;12.75;8.68;;;2.40;99.90;;;;;;493970;241;27577;-75
2021/12/11 09:39:15;;;;;;;12.20;8.60;;;2.50;99.90;;;;;;494032;241;27940;-75
2021/12/11 09:41:17;;;;;;;12.00;9.07;;;2.50;99.90;;;;;;494009;241;29193;-75
2021/12/11 09:43:18;;;;;;;11.23;8.35;;;2.50;99.90;;;;;;494005;241;28043;-74
2021/12/11 09:45:19;;;;;;;12.10;8.23;;;2.60;99.90;;;;;;494007;241;27504;-74
2021/12/11 09:47:20;;;;;;;11.98;8.50;;;2.70;99.90;;;;;;493952;241;27470;-74
2021/12/11 09:49:22;;;;;;;11.48;8.32;;;2.60;99.90;;;;;;493964;241;27488;-75
2021/12/11 09:51:26;;;;;;;10.38;7.82;;;2.60;99.90;;;;;;494018;241;27510;-74
2021/12/11 09:53:24;;;;;;;11.43;8.40;;;2.60;99.90;;;;;;493754;241;27460;-74
2021/12/11 09:55:25;;;;;;;10.23;8.10;;;2.60;99.90;;;;;;494000;241;27503;-75
2021/12/11 09:57:27;;;;;;;11.25;8.50;;;2.50;99.90;;;;;;493986;241;27583;-75
2021/12/11 09:59:28;;;;;;;13.75;9.10;;;2.50;99.90;;;;;;493999;241;27922;-75
2021/12/11 10:01:29;;;;;;;11.70;8.23;;;2.60;99.90;;;;;;494003;241;29097;-74
2021/12/11 10:03:30;;;;;;;13.02;9.25;;;2.60;99.90;;;;;;493975;241;27482;-74
2021/12/11 10:05:35;;;;;;;12.50;8.45;;;2.60;99.90;;;;;;494005;241;27640;-74
2021/12/11 10:07:36;;;;;;;12.05;8.38;;;2.70;99.90;;;;;;493750;241;27582;-75
2021/12/11 10:09:34;;;;;;;12.52;8.85;;;2.80;99.90;;;;;;493726;241;27572;-74
2021/12/11 10:11:36;;;;;;;11.90;8.63;;;2.70;99.90;;;;;;493982;241;27528;-75
2021/12/11 10:13:37;;;;;;;11.90;8.35;;;2.70;99.90;;;;;;493979;241;27521;-75
2021/12/11 10:15:40;;;;;;;13.52;9.10;;;2.70;99.90;;;;;;493971;241;27658;-75
2021/12/11 10:17:40;;;;;;;11.20;8.40;;;2.80;99.90;;;;;;493822;241;27463;-75
2021/12/11 10:19:40;;;;;;;11.48;8.18;;;2.90;99.90;;;;;;493929;241;27921;-75
2021/12/11 10:21:42;;;;;;;10.05;7.62;;;3.00;99.90;;;;;;493991;241;27977;-75
2021/12/11 10:23:43;;;;;;;13.27;8.90;;;3.00;99.90;;;;;;493968;241;27928;-75
2021/12/11 10:25:44;;;;;;;12.95;9.65;;;3.00;99.90;;;;;;493975;241;27494;-74
2021/12/11 10:27:45;;;;;;;12.98;9.43;;;3.00;99.90;;;;;;493977;241;27493;-74
2021/12/11 10:29:47;;;;;;;11.73;8.60;;;2.80;99.90;;;;;;493965;241;27617;-75
2021/12/11 10:31:48;;;;;;;14.23;9.10;;;2.80;99.90;;;;;;493984;241;27494;-75
2021/12/11 10:33:49;;;;;;;12.88;9.43;;;2.80;99.90;;;;;;493984;241;27503;-75
2021/12/11 10:35:50;;;;;;;12.68;8.80;;;2.90;99.90;;;;;;493954;241;27613;-75
2021/12/11 10:37:52;;;;;;;12.37;8.90;;;3.10;99.90;;;;;;493984;238;27622;-75
2021/12/11 10:39:53;;;;;;;10.60;8.52;;;3.20;99.90;;;;;;494047;241;27905;-74
2021/12/11 10:41:54;;;;;;;10.48;8.27;;;3.30;99.90;;;;;;494004;241;28085;-75
2021/12/11 10:43:55;;;;;;;14.30;10.40;;;3.40;99.90;;;;;;493961;241;29020;-74
2021/12/11 10:45:57;;;;;;;15.30;9.95;;;3.30;99.90;;;;;;494004;241;27604;-75
2021/12/11 10:47:58;;;;;;;12.63;8.70;;;3.30;99.90;;;;;;494006;241;27497;-74
2021/12/11 10:49:59;;;;;;;13.95;9.32;;;3.30;99.90;;;;;;494040;241;27605;-75